Time;durP1;ratioP1;P1;durP2;ratioP2;P2;SDS_P1;SDS_P2;PMS_P1;PMS_P2;Temp;Humidity;BMP_temperature;BMP_pressure;BME280_temperature;BME280_humidity;BME280_pressure;Samples;Min_cycle;Max_cycle;Signal;HPM_P1;HPM_P2
2023/11/03 00:02:00;;;;;;;10.33;2.60;;;;;;;;;;5012459;28;20236;-79
2023/11/03 00:04:27;;;;;;;7.63;2.70;;;;;;;;;;5012146;28;20240;-79
2023/11/03 00:06:56;;;;;;;11.43;2.67;;;;;;;;;;5012409;28;20244;-78
2023/11/03 00:09:23;;;;;;;7.47;2.40;;;;;;;;;;5012168;28;20256;-78
2023/11/03 00:11:52;;;;;;;12.07;3.40;;;;;;;;;;5012585;28;20201;-79
2023/11/03 00:14:20;;;;;;;10.53;2.97;;;;;;;;;;5012493;28;20258;-79
2023/11/03 00:16:47;;;;;;;9.37;3.20;;;;;;;;;;5012460;28;20204;-79
2023/11/03 00:19:15;;;;;;;9.73;2.37;;;;;;;;;;5011915;28;20243;-79
2023/11/03 00:21:43;;;;;;;8.20;2.40;;;;;;;;;;5029243;28;20246;-79
2023/11/03 00:24:11;;;;;;;7.30;2.57;;;;;;;;;;5051996;28;20230;-79
2023/11/03 00:26:38;;;;;;;8.83;2.83;;;;;;;;;;5036959;28;20204;-79
2023/11/03 00:29:07;;;;;;;8.80;2.77;;;;;;;;;;5031286;28;20251;-79
2023/11/03 00:31:34;;;;;;;7.50;2.33;;;;;;;;;;5031147;28;20243;-79
2023/11/03 00:34:02;;;;;;;10.33;2.37;;;;;;;;;;5031012;28;20231;-79
2023/11/03 00:36:31;;;;;;;10.13;2.80;;;;;;;;;;5031429;28;20321;-79
2023/11/03 00:38:58;;;;;;;11.83;2.60;;;;;;;;;;5032249;28;20210;-80
2023/11/03 00:41:26;;;;;;;8.57;2.50;;;;;;;;;;5031579;28;20204;-78
2023/11/03 00:43:53;;;;;;;8.37;2.60;;;;;;;;;;5031776;28;20209;-79
2023/11/03 00:46:21;;;;;;;7.57;2.83;;;;;;;;;;5031492;28;20231;-79
2023/11/03 00:48:49;;;;;;;7.40;2.53;;;;;;;;;;5031156;28;20661;-78
2023/11/03 00:51:16;;;;;;;7.57;2.53;;;;;;;;;;5031294;28;20231;-78
2023/11/03 00:53:45;;;;;;;9.13;2.30;;;;;;;;;;5031750;28;20200;-79
2023/11/03 00:56:13;;;;;;;10.90;3.00;;;;;;;;;;5031101;28;20216;-79
2023/11/03 00:58:41;;;;;;;9.80;2.50;;;;;;;;;;5031460;28;20196;-78
2023/11/03 01:01:08;;;;;;;8.70;2.30;;;;;;;;;;5031582;28;20247;-80
2023/11/03 01:03:36;;;;;;;7.90;2.53;;;;;;;;;;5031169;28;20203;-78
2023/11/03 01:06:05;;;;;;;6.33;2.00;;;;;;;;;;5031324;28;20229;-79
2023/11/03 01:08:32;;;;;;;8.00;2.37;;;;;;;;;;5031304;28;20196;-78
2023/11/03 01:11:00;;;;;;;9.27;2.20;;;;;;;;;;5030914;28;20231;-78
2023/11/03 01:13:28;;;;;;;10.80;2.30;;;;;;;;;;5031400;28;20227;-79
2023/11/03 01:15:55;;;;;;;7.77;2.47;;;;;;;;;;5030934;28;20193;-79
2023/11/03 01:18:22;;;;;;;11.40;2.20;;;;;;;;;;5031094;28;20207;-78
2023/11/03 01:20:55;;;;;;;6.63;2.00;;;;;;;;;;5030835;28;20232;-79
2023/11/03 01:23:22;;;;;;;9.50;2.50;;;;;;;;;;5031249;28;20196;-79
2023/11/03 01:25:50;;;;;;;7.13;2.13;;;;;;;;;;5030975;28;20236;-79
2023/11/03 01:28:17;;;;;;;8.03;2.20;;;;;;;;;;5030878;28;20193;-79
2023/11/03 01:30:45;;;;;;;9.83;2.33;;;;;;;;;;5030753;28;20708;-78
2023/11/03 01:33:12;;;;;;;7.13;2.30;;;;;;;;;;5031077;28;20200;-79
2023/11/03 01:35:39;;;;;;;9.97;2.00;;;;;;;;;;5030932;28;20204;-79
2023/11/03 01:38:08;;;;;;;10.17;2.10;;;;;;;;;;5031072;28;20239;-80
2023/11/03 01:40:36;;;;;;;4.90;2.00;;;;;;;;;;5031105;28;20243;-78
2023/11/03 01:43:03;;;;;;;8.50;1.70;;;;;;;;;;5030743;28;20204;-79
2023/11/03 01:45:30;;;;;;;7.00;1.70;;;;;;;;;;5030724;28;20236;-78
2023/11/03 01:47:57;;;;;;;7.67;1.73;;;;;;;;;;5031021;28;20244;-79
2023/11/03 01:50:24;;;;;;;9.10;2.00;;;;;;;;;;5030751;28;20225;-78
2023/11/03 01:52:53;;;;;;;7.90;2.40;;;;;;;;;;5030891;28;20292;-79
2023/11/03 01:55:21;;;;;;;9.77;2.80;;;;;;;;;;5030811;28;20235;-78
2023/11/03 01:57:49;;;;;;;8.53;2.27;;;;;;;;;;5013025;28;20714;-79
2023/11/03 02:00:19;;;;;;;10.57;2.80;;;;;;;;;;5031018;28;20208;-79
2023/11/03 02:02:46;;;;;;;8.33;2.20;;;;;;;;;;5034941;28;20715;-79
2023/11/03 02:05:14;;;;;;;9.33;2.40;;;;;;;;;;5034464;28;20648;-79
2023/11/03 02:07:41;;;;;;;7.63;1.87;;;;;;;;;;5034462;28;20244;-79
2023/11/03 02:10:08;;;;;;;9.10;1.90;;;;;;;;;;5034642;28;20256;-79
2023/11/03 02:12:37;;;;;;;10.17;1.97;;;;;;;;;;5033896;28;20239;-79
2023/11/03 02:15:05;;;;;;;9.60;1.90;;;;;;;;;;5033862;28;20228;-79
2023/11/03 02:17:33;;;;;;;6.33;2.00;;;;;;;;;;5034561;28;20203;-78
2023/11/03 02:20:00;;;;;;;6.93;1.60;;;;;;;;;;5034248;28;20743;-78
2023/11/03 02:22:27;;;;;;;6.93;1.93;;;;;;;;;;5034235;28;20629;-79
2023/11/03 02:24:56;;;;;;;7.90;1.70;;;;;;;;;;5033789;28;20200;-79
2023/11/03 02:27:23;;;;;;;5.13;1.73;;;;;;;;;;5034173;28;20239;-79
2023/11/03 02:29:50;;;;;;;6.67;1.80;;;;;;;;;;5033423;28;20202;-80
2023/11/03 02:32:17;;;;;;;8.10;1.93;;;;;;;;;;5033656;28;20684;-79
2023/11/03 02:34:45;;;;;;;7.57;2.23;;;;;;;;;;5033821;28;20735;-79
2023/11/03 02:37:12;;;;;;;5.13;1.70;;;;;;;;;;5032194;28;20197;-78
2023/11/03 02:39:40;;;;;;;7.27;1.60;;;;;;;;;;5022598;28;20204;-78
2023/11/03 02:42:08;;;;;;;9.60;1.80;;;;;;;;;;5034401;28;20287;-79
2023/11/03 02:44:36;;;;;;;7.70;1.63;;;;;;;;;;5033811;28;20221;-78
2023/11/03 02:47:04;;;;;;;8.97;1.97;;;;;;;;;;5033759;28;20196;-78
2023/11/03 02:49:32;;;;;;;9.13;2.00;;;;;;;;;;5033786;28;20200;-79
2023/11/03 02:51:59;;;;;;;8.00;2.43;;;;;;;;;;5033714;28;20274;-78
2023/11/03 02:54:26;;;;;;;8.93;2.10;;;;;;;;;;5033313;28;20224;-79
2023/11/03 02:56:53;;;;;;;9.50;2.10;;;;;;;;;;5033671;28;20230;-79
2023/11/03 02:59:22;;;;;;;6.73;2.00;;;;;;;;;;5033210;28;20605;-78
2023/11/03 03:01:49;;;;;;;10.70;2.20;;;;;;;;;;5033269;28;20197;-79
2023/11/03 03:04:16;;;;;;;8.60;1.90;;;;;;;;;;5033903;28;20232;-79
2023/11/03 03:06:45;;;;;;;6.17;2.10;;;;;;;;;;5033515;28;20203;-79
2023/11/03 03:09:12;;;;;;;7.37;2.00;;;;;;;;;;5033138;28;20252;-79
2023/11/03 03:11:40;;;;;;;9.27;2.13;;;;;;;;;;5032787;28;20326;-79
2023/11/03 03:14:08;;;;;;;7.90;1.93;;;;;;;;;;5032888;28;20296;-79
2023/11/03 03:16:37;;;;;;;8.40;2.03;;;;;;;;;;5033188;28;20243;-79
2023/11/03 03:19:05;;;;;;;5.47;1.77;;;;;;;;;;5033247;28;20224;-78
2023/11/03 03:21:33;;;;;;;6.40;2.30;;;;;;;;;;5033085;28;20193;-79
2023/11/03 03:24:00;;;;;;;11.13;1.90;;;;;;;;;;5033068;28;20585;-78
2023/11/03 03:26:27;;;;;;;7.53;1.70;;;;;;;;;;5020558;28;20211;-78
2023/11/03 03:28:55;;;;;;;7.73;1.63;;;;;;;;;;5032106;28;20235;-79
2023/11/03 03:31:22;;;;;;;7.20;1.93;;;;;;;;;;5032696;28;20240;-79
2023/11/03 03:33:51;;;;;;;6.27;1.80;;;;;;;;;;5032806;28;20288;-78
2023/11/03 03:36:18;;;;;;;5.63;1.57;;;;;;;;;;5033283;28;20284;-79
2023/11/03 03:38:45;;;;;;;9.67;1.93;;;;;;;;;;5032697;28;20283;-79
2023/11/03 03:41:13;;;;;;;11.30;2.13;;;;;;;;;;5032097;28;20287;-78
2023/11/03 03:43:41;;;;;;;10.50;2.13;;;;;;;;;;5032627;28;20200;-79
2023/11/03 03:46:08;;;;;;;5.93;1.80;;;;;;;;;;5033046;28;20201;-79
2023/11/03 03:48:35;;;;;;;8.40;1.77;;;;;;;;;;5032765;28;20295;-79
2023/11/03 03:51:04;;;;;;;11.63;1.97;;;;;;;;;;5032575;28;20255;-79
2023/11/03 03:53:32;;;;;;;5.87;1.63;;;;;;;;;;5032272;28;20572;-78
2023/11/03 03:55:59;;;;;;;4.10;1.73;;;;;;;;;;5032181;28;20239;-78
2023/11/03 03:58:26;;;;;;;6.27;1.77;;;;;;;;;;5032558;28;20239;-78
2023/11/03 04:00:53;;;;;;;8.77;2.20;;;;;;;;;;5032280;28;20200;-78
2023/11/03 04:03:20;;;;;;;10.60;1.90;;;;;;;;;;5032282;28;20224;-78
2023/11/03 04:05:47;;;;;;;7.70;1.60;;;;;;;;;;5032383;28;20236;-79
2023/11/03 04:08:16;;;;;;;7.27;1.93;;;;;;;;;;5032122;28;20232;-78
2023/11/03 04:10:43;;;;;;;5.37;1.70;;;;;;;;;;5031924;28;20224;-79
2023/11/03 04:13:10;;;;;;;7.83;1.90;;;;;;;;;;5032484;28;20227;-79
2023/11/03 04:15:37;;;;;;;9.90;2.47;;;;;;;;;;5032303;28;20205;-79
2023/11/03 04:18:05;;;;;;;7.87;1.90;;;;;;;;;;5031986;28;20197;-79
2023/11/03 04:20:32;;;;;;;6.83;1.83;;;;;;;;;;5031968;28;20235;-79
2023/11/03 04:22:59;;;;;;;5.70;1.70;;;;;;;;;;5031865;28;20715;-78
2023/11/03 04:25:28;;;;;;;3.80;1.50;;;;;;;;;;5031454;28;20670;-78
2023/11/03 04:27:55;;;;;;;9.63;2.23;;;;;;;;;;5031744;28;20280;-78
2023/11/03 04:30:22;;;;;;;7.93;1.70;;;;;;;;;;5031975;28;20316;-78
2023/11/03 04:32:49;;;;;;;8.07;2.10;;;;;;;;;;5031654;28;20712;-78
2023/11/03 04:35:16;;;;;;;7.57;1.63;;;;;;;;;;5031676;28;20673;-79
2023/11/03 04:37:44;;;;;;;7.60;1.97;;;;;;;;;;5031443;28;20733;-79
2023/11/03 04:40:12;;;;;;;5.63;1.80;;;;;;;;;;5031612;28;20193;-79
2023/11/03 04:42:41;;;;;;;7.47;1.73;;;;;;;;;;5031550;28;20283;-79
2023/11/03 04:45:10;;;;;;;8.40;1.90;;;;;;;;;;5031723;28;20204;-78
2023/11/03 04:47:37;;;;;;;8.00;1.87;;;;;;;;;;5031697;28;20216;-79
2023/11/03 04:50:06;;;;;;;7.80;1.63;;;;;;;;;;5031653;28;20287;-79
2023/11/03 04:52:33;;;;;;;9.23;1.90;;;;;;;;;;5031550;28;20599;-79
2023/11/03 04:55:00;;;;;;;6.90;1.63;;;;;;;;;;5031158;28;20282;-79
2023/11/03 04:57:27;;;;;;;6.80;2.10;;;;;;;;;;5031967;28;20283;-79
2023/11/03 04:59:56;;;;;;;8.73;1.83;;;;;;;;;;5031882;28;20288;-78
2023/11/03 05:02:23;;;;;;;7.13;2.03;;;;;;;;;;5031332;28;20239;-78
2023/11/03 05:04:50;;;;;;;8.60;1.60;;;;;;;;;;5031196;28;20236;-78
2023/11/03 05:07:18;;;;;;;8.33;1.70;;;;;;;;;;5031509;28;20239;-79
2023/11/03 05:09:45;;;;;;;7.30;1.50;;;;;;;;;;5030841;28;20315;-79
2023/11/03 05:12:12;;;;;;;6.30;1.63;;;;;;;;;;5031139;28;20227;-78
2023/11/03 05:14:39;;;;;;;8.77;1.57;;;;;;;;;;5031108;28;20932;-79
2023/11/03 05:17:08;;;;;;;6.20;1.57;;;;;;;;;;5031205;28;20227;-79
2023/11/03 05:19:36;;;;;;;8.17;1.60;;;;;;;;;;5031381;28;20231;-78
2023/11/03 05:22:03;;;;;;;7.27;1.63;;;;;;;;;;5031004;28;20604;-79
2023/11/03 05:24:31;;;;;;;8.37;1.80;;;;;;;;;;5030985;28;20193;-79
2023/11/03 05:26:58;;;;;;;6.03;1.60;;;;;;;;;;5031691;28;20200;-79
2023/11/03 05:29:25;;;;;;;7.33;1.90;;;;;;;;;;5031344;28;20358;-79
2023/11/03 05:31:53;;;;;;;5.70;1.60;;;;;;;;;;5031099;28;20348;-79
2023/11/03 05:34:21;;;;;;;7.13;1.40;;;;;;;;;;5030814;28;20232;-79
2023/11/03 05:36:48;;;;;;;7.73;1.30;;;;;;;;;;5033894;28;20295;-79
2023/11/03 05:39:17;;;;;;;4.47;1.07;;;;;;;;;;5034726;28;20224;-78
2023/11/03 05:41:44;;;;;;;5.30;1.30;;;;;;;;;;5035165;28;20201;-79
2023/11/03 05:44:12;;;;;;;6.47;1.00;;;;;;;;;;5034973;28;20235;-78
2023/11/03 05:46:39;;;;;;;5.40;1.17;;;;;;;;;;5034956;28;20688;-79
2023/11/03 05:49:06;;;;;;;4.27;1.30;;;;;;;;;;5034867;28;20224;-79
2023/11/03 05:51:35;;;;;;;2.93;1.10;;;;;;;;;;5034109;28;20810;-79
2023/11/03 05:54:03;;;;;;;2.83;0.83;;;;;;;;;;5035067;28;20200;-79
2023/11/03 05:56:30;;;;;;;4.97;1.47;;;;;;;;;;5034364;28;20196;-79
2023/11/03 05:58:57;;;;;;;6.00;1.20;;;;;;;;;;5034425;28;20203;-77
2023/11/03 06:01:24;;;;;;;7.13;1.50;;;;;;;;;;5034543;28;20287;-77
2023/11/03 06:03:52;;;;;;;4.83;1.10;;;;;;;;;;5034793;28;20235;-78
2023/11/03 06:06:19;;;;;;;5.17;1.60;;;;;;;;;;5034625;28;20220;-78
2023/11/03 06:08:47;;;;;;;6.07;1.40;;;;;;;;;;5034707;28;20291;-78
2023/11/03 06:11:15;;;;;;;5.13;1.30;;;;;;;;;;5034160;28;20299;-78
2023/11/03 06:13:42;;;;;;;4.80;1.17;;;;;;;;;;5034621;28;20193;-78
2023/11/03 06:16:09;;;;;;;5.47;1.33;;;;;;;;;;5034518;28;20283;-78
2023/11/03 06:18:36;;;;;;;5.67;1.60;;;;;;;;;;5034072;28;20625;-77
2023/11/03 06:21:04;;;;;;;5.33;1.37;;;;;;;;;;5033706;28;20629;-78
2023/11/03 06:23:31;;;;;;;5.53;3.20;;;;;;;;;;5034051;28;20873;-78
2023/11/03 06:25:59;;;;;;;3.57;1.90;;;;;;;;;;5034099;28;20235;-78
2023/11/03 06:28:26;;;;;;;5.73;2.80;;;;;;;;;;5034272;28;20622;-78
2023/11/03 06:30:54;;;;;;;10.10;3.77;;;;;;;;;;5034167;28;20234;-78
2023/11/03 06:33:21;;;;;;;11.83;4.60;;;;;;;;;;5033482;28;20327;-77
2023/11/03 06:35:48;;;;;;;12.10;5.60;;;;;;;;;;5033398;28;20235;-77
2023/11/03 06:38:16;;;;;;;7.10;3.10;;;;;;;;;;5034410;28;20196;-76
2023/11/03 06:40:43;;;;;;;6.13;1.70;;;;;;;;;;5034142;28;20279;-78
2023/11/03 06:43:11;;;;;;;7.07;2.07;;;;;;;;;;5033454;28;20294;-78
2023/11/03 06:45:38;;;;;;;6.83;2.00;;;;;;;;;;5033990;28;20195;-78
2023/11/03 06:48:06;;;;;;;6.43;1.80;;;;;;;;;;5033966;28;20228;-78
2023/11/03 06:50:33;;;;;;;8.70;3.20;;;;;;;;;;5033083;28;20695;-78
2023/11/03 06:53:00;;;;;;;7.07;2.97;;;;;;;;;;5033638;28;20228;-78
2023/11/03 06:55:29;;;;;;;10.20;2.50;;;;;;;;;;5033757;28;20238;-79
2023/11/03 06:57:56;;;;;;;8.07;2.33;;;;;;;;;;5033163;28;20643;-78
2023/11/03 07:00:25;;;;;;;5.10;2.33;;;;;;;;;;5033671;28;20263;-79
2023/11/03 07:02:53;;;;;;;4.73;2.63;;;;;;;;;;5032957;28;20192;-78
2023/11/03 07:05:23;;;;;;;5.83;1.80;;;;;;;;;;5031234;28;20193;-78
2023/11/03 07:07:50;;;;;;;7.27;2.10;;;;;;;;;;5032975;28;20255;-77
2023/11/03 07:10:17;;;;;;;4.67;2.13;;;;;;;;;;5047689;28;20198;-79
2023/11/03 07:12:45;;;;;;;4.33;1.97;;;;;;;;;;5035922;28;20733;-79
2023/11/03 07:15:12;;;;;;;6.87;2.03;;;;;;;;;;5046938;28;20200;-77
2023/11/03 07:17:41;;;;;;;5.13;2.20;;;;;;;;;;5041803;28;20199;-78
2023/11/03 07:20:09;;;;;;;3.63;1.57;;;;;;;;;;5038945;28;20703;-78
2023/11/03 07:22:36;;;;;;;7.07;2.07;;;;;;;;;;5048983;28;20606;-78
2023/11/03 07:25:04;;;;;;;4.97;2.10;;;;;;;;;;5036963;28;20710;-78
2023/11/03 07:27:32;;;;;;;7.03;2.47;;;;;;;;;;5042401;28;20192;-78
2023/11/03 07:29:59;;;;;;;5.90;2.20;;;;;;;;;;5046613;28;20255;-78
2023/11/03 07:32:27;;;;;;;5.57;2.03;;;;;;;;;;5023364;28;20268;-78
2023/11/03 07:34:56;;;;;;;7.57;2.47;;;;;;;;;;5024963;28;20572;-78
2023/11/03 07:37:23;;;;;;;5.40;2.23;;;;;;;;;;5032936;28;20286;-78
2023/11/03 07:39:50;;;;;;;6.73;2.53;;;;;;;;;;5032927;28;20244;-79
2023/11/03 07:42:17;;;;;;;7.63;3.10;;;;;;;;;;5032768;28;20201;-79
2023/11/03 07:44:45;;;;;;;8.73;2.80;;;;;;;;;;5029170;28;20630;-78
2023/11/03 07:47:13;;;;;;;5.37;2.40;;;;;;;;;;5013256;28;20239;-79
2023/11/03 07:49:40;;;;;;;9.47;4.67;;;;;;;;;;5012516;28;20684;-77
2023/11/03 07:52:08;;;;;;;7.03;3.10;;;;;;;;;;5026512;28;20723;-78
2023/11/03 07:54:36;;;;;;;12.80;6.37;;;;;;;;;;5039073;28;20283;-79
2023/11/03 07:57:03;;;;;;;9.70;4.70;;;;;;;;;;5032201;28;20209;-77
2023/11/03 07:59:30;;;;;;;8.87;4.30;;;;;;;;;;5031921;28;20207;-78
2023/11/03 08:01:57;;;;;;;8.93;4.87;;;;;;;;;;5031916;28;20239;-79
2023/11/03 08:04:25;;;;;;;13.17;6.90;;;;;;;;;;5031996;28;20304;-77
2023/11/03 08:06:55;;;;;;;12.57;6.87;;;;;;;;;;5031998;28;20232;-78
2023/11/03 08:09:27;;;;;;;9.53;5.40;;;;;;;;;;5032286;28;20219;-78
2023/11/03 08:11:54;;;;;;;9.53;5.60;;;;;;;;;;5032078;28;20196;-78
2023/11/03 08:14:22;;;;;;;8.13;4.67;;;;;;;;;;5032328;28;20645;-78
2023/11/03 08:16:49;;;;;;;8.33;4.00;;;;;;;;;;5031970;28;20224;-78
2023/11/03 08:19:16;;;;;;;5.70;3.40;;;;;;;;;;5031716;28;20235;-76
2023/11/03 08:21:43;;;;;;;4.90;3.33;;;;;;;;;;5032108;28;20239;-75
2023/11/03 08:24:11;;;;;;;7.27;2.97;;;;;;;;;;5032121;28;20778;-77
2023/11/03 08:26:40;;;;;;;5.77;2.30;;;;;;;;;;5032288;28;20202;-77
2023/11/03 08:29:08;;;;;;;3.77;1.97;;;;;;;;;;5031710;28;20200;-79
2023/11/03 08:31:35;;;;;;;4.47;2.00;;;;;;;;;;5031451;28;20331;-76
2023/11/03 08:34:04;;;;;;;6.63;2.50;;;;;;;;;;5031137;28;20319;-80
2023/11/03 08:36:31;;;;;;;8.50;2.63;;;;;;;;;;5050985;28;20219;-80
2023/11/03 08:38:59;;;;;;;4.27;1.80;;;;;;;;;;5051042;28;20626;-80
2023/11/03 08:41:26;;;;;;;3.53;1.80;;;;;;;;;;5051705;28;20196;-80
2023/11/03 08:43:55;;;;;;;4.67;1.60;;;;;;;;;;5051108;28;20672;-79
2023/11/03 08:46:22;;;;;;;3.63;1.80;;;;;;;;;;5050977;28;20647;-80
2023/11/03 08:48:49;;;;;;;2.83;1.30;;;;;;;;;;5051756;28;20271;-79
2023/11/03 08:51:18;;;;;;;4.13;2.37;;;;;;;;;;5051490;28;20295;-79
2023/11/03 08:53:45;;;;;;;4.53;3.07;;;;;;;;;;5051821;28;20277;-80
2023/11/03 08:56:13;;;;;;;3.30;1.93;;;;;;;;;;5051568;28;20556;-80
2023/11/03 08:58:41;;;;;;;5.27;1.93;;;;;;;;;;5051347;28;20262;-81
2023/11/03 09:01:10;;;;;;;3.50;1.70;;;;;;;;;;5050631;28;20254;-79
2023/11/03 09:03:37;;;;;;;3.27;1.30;;;;;;;;;;5051272;28;20692;-79
2023/11/03 09:06:06;;;;;;;2.53;1.30;;;;;;;;;;5051186;28;20737;-79
2023/11/03 09:08:34;;;;;;;3.93;1.40;;;;;;;;;;5051395;28;20687;-79
2023/11/03 09:11:01;;;;;;;3.20;1.10;;;;;;;;;;5052736;28;20667;-78
2023/11/03 09:13:29;;;;;;;3.57;1.80;;;;;;;;;;5055741;28;20227;-80
2023/11/03 09:15:57;;;;;;;3.53;2.03;;;;;;;;;;5054956;28;20200;-80
2023/11/03 09:18:27;;;;;;;4.60;2.30;;;;;;;;;;5055356;28;20668;-79
2023/11/03 09:20:54;;;;;;;3.27;1.60;;;;;;;;;;5055393;28;20204;-79
2023/11/03 09:23:21;;;;;;;1.93;1.50;;;;;;;;;;5055496;28;20294;-80
2023/11/03 09:25:48;;;;;;;3.37;1.70;;;;;;;;;;5055679;28;20223;-79
2023/11/03 09:28:16;;;;;;;3.80;1.87;;;;;;;;;;5055087;28;20287;-80
2023/11/03 09:30:43;;;;;;;3.47;1.70;;;;;;;;;;5054589;28;20223;-79
2023/11/03 09:33:11;;;;;;;2.05;0.93;;;;;;;;;;5037408;28;20611;-79
2023/11/03 09:35:40;;;;;;;1.73;0.85;;;;;;;;;;5036728;28;20200;-80
2023/11/03 09:38:08;;;;;;;2.47;1.10;;;;;;;;;;5034860;28;20200;-79
2023/11/03 09:40:36;;;;;;;1.42;0.80;;;;;;;;;;5035227;28;20239;-80
2023/11/03 09:43:03;;;;;;;1.40;0.80;;;;;;;;;;5034895;28;20204;-78
2023/11/03 09:45:32;;;;;;;3.05;0.90;;;;;;;;;;5034590;28;20204;-79
2023/11/03 09:48:01;;;;;;;1.27;0.70;;;;;;;;;;5034919;28;20242;-79
2023/11/03 09:50:28;;;;;;;1.60;0.60;;;;;;;;;;5034743;28;20207;-79
2023/11/03 09:52:59;;;;;;;1.73;0.60;;;;;;;;;;5034824;28;20287;-79
2023/11/03 09:55:27;;;;;;;1.40;0.80;;;;;;;;;;5034790;28;20288;-79
2023/11/03 09:57:56;;;;;;;3.05;0.95;;;;;;;;;;5034325;28;20287;-79
2023/11/03 10:00:24;;;;;;;1.63;1.10;;;;;;;;;;5034660;28;20685;-79
2023/11/03 10:02:51;;;;;;;2.35;1.20;;;;;;;;;;5035183;28;20287;-80
2023/11/03 10:05:21;;;;;;;2.97;1.08;;;;;;;;;;5034774;28;20204;-80
2023/11/03 10:07:52;;;;;;;1.90;0.88;;;;;;;;;;5034755;28;20197;-80
2023/11/03 10:10:20;;;;;;;3.63;1.45;;;;;;;;;;5034470;28;20224;-80
2023/11/03 10:12:48;;;;;;;2.60;1.38;;;;;;;;;;5034032;28;20232;-78
2023/11/03 10:15:15;;;;;;;2.95;1.40;;;;;;;;;;5034762;28;20196;-79
2023/11/03 10:17:45;;;;;;;4.70;1.40;;;;;;;;;;5034233;28;20285;-79
2023/11/03 10:20:12;;;;;;;4.32;1.60;;;;;;;;;;5034577;28;20213;-78
2023/11/03 10:22:40;;;;;;;2.08;1.20;;;;;;;;;;5033881;28;20200;-79
2023/11/03 10:25:08;;;;;;;2.05;1.17;;;;;;;;;;5034142;28;20196;-78
2023/11/03 10:27:37;;;;;;;2.58;1.20;;;;;;;;;;5034414;28;20236;-78
2023/11/03 10:30:05;;;;;;;2.33;1.20;;;;;;;;;;5034157;28;20316;-79
2023/11/03 10:32:35;;;;;;;2.92;1.25;;;;;;;;;;5033752;28;20204;-80
2023/11/03 10:35:05;;;;;;;2.72;1.10;;;;;;;;;;5033926;28;20611;-79
2023/11/03 10:37:36;;;;;;;5.63;1.50;;;;;;;;;;5034199;28;20311;-80
2023/11/03 10:40:04;;;;;;;4.45;1.30;;;;;;;;;;5033504;28;20280;-78
2023/11/03 10:42:32;;;;;;;2.88;1.55;;;;;;;;;;5033803;28;20192;-79
2023/11/03 10:45:04;;;;;;;4.25;1.40;;;;;;;;;;5033922;28;20192;-79
2023/11/03 10:47:33;;;;;;;4.38;2.00;;;;;;;;;;5033487;28;20760;-79
2023/11/03 10:50:05;;;;;;;4.13;1.10;;;;;;;;;;5033727;28;20192;-79
2023/11/03 10:52:35;;;;;;;2.92;1.10;;;;;;;;;;5033355;28;20219;-80
2023/11/03 10:55:04;;;;;;;5.72;1.27;;;;;;;;;;5033574;28;20232;-81
2023/11/03 10:57:32;;;;;;;3.55;1.23;;;;;;;;;;5033181;28;20202;-79
2023/11/03 11:00:09;;;;;;;5.70;1.45;;;;;;;;;;5033688;28;20239;-78
2023/11/03 11:02:38;;;;;;;3.22;1.02;;;;;;;;;;5033390;28;20200;-80
2023/11/03 11:05:11;;;;;;;4.15;1.40;;;;;;;;;;5033955;28;20232;-79
2023/11/03 11:07:40;;;;;;;3.15;1.77;;;;;;;;;;5033588;28;20287;-79
2023/11/03 11:10:08;;;;;;;3.08;1.42;;;;;;;;;;5033418;28;20228;-79
2023/11/03 11:12:48;;;;;;;4.90;1.70;;;;;;;;;;5032636;28;20815;-79
2023/11/03 11:15:20;;;;;;;4.75;2.00;;;;;;;;;;5033431;28;20197;-80
2023/11/03 11:17:48;;;;;;;3.03;1.60;;;;;;;;;;5033020;28;20296;-81
2023/11/03 11:20:17;;;;;;;2.88;1.98;;;;;;;;;;5032870;28;20640;-82
2023/11/03 11:22:47;;;;;;;3.05;2.13;;;;;;;;;;5033110;28;20584;-78
2023/11/03 11:25:14;;;;;;;3.58;2.10;;;;;;;;;;5032573;28;20722;-78
2023/11/03 11:27:44;;;;;;;3.95;2.13;;;;;;;;;;5033592;28;20292;-78
2023/11/03 11:30:14;;;;;;;3.30;1.90;;;;;;;;;;5032881;28;20327;-79
2023/11/03 11:32:45;;;;;;;4.13;1.83;;;;;;;;;;5032507;28;20291;-79
2023/11/03 11:35:13;;;;;;;2.78;1.48;;;;;;;;;;5032411;28;20196;-81
2023/11/03 11:37:40;;;;;;;4.32;2.60;;;;;;;;;;5032619;28;20199;-78
2023/11/03 11:40:09;;;;;;;3.00;1.88;;;;;;;;;;5032299;28;20224;-78
2023/11/03 11:42:42;;;;;;;4.40;1.60;;;;;;;;;;5032581;28;20224;-81
2023/11/03 11:45:11;;;;;;;2.72;1.92;;;;;;;;;;5033064;28;20207;-79
2023/11/03 11:47:39;;;;;;;3.45;1.40;;;;;;;;;;5032865;28;20223;-79
2023/11/03 11:50:11;;;;;;;2.78;1.55;;;;;;;;;;5032721;28;20196;-79
2023/11/03 11:52:40;;;;;;;3.45;1.60;;;;;;;;;;5032468;28;20197;-79
2023/11/03 11:55:09;;;;;;;5.40;1.40;;;;;;;;;;5032336;28;20231;-79
2023/11/03 11:57:40;;;;;;;3.60;1.60;;;;;;;;;;5032583;28;20559;-79
2023/11/03 12:00:10;;;;;;;5.78;2.97;;;;;;;;;;5032487;28;20285;-79
2023/11/03 12:02:37;;;;;;;4.30;1.98;;;;;;;;;;5032063;28;20669;-78
2023/11/03 12:05:04;;;;;;;4.82;1.98;;;;;;;;;;5032532;28;20295;-80
2023/11/03 12:07:34;;;;;;;2.88;1.58;;;;;;;;;;5032194;28;20258;-80
2023/11/03 12:10:01;;;;;;;5.75;2.80;;;;;;;;;;5032055;28;20244;-79
2023/11/03 12:12:29;;;;;;;5.43;2.13;;;;;;;;;;5032388;28;20193;-78
2023/11/03 12:14:58;;;;;;;2.80;1.10;;;;;;;;;;5032058;28;20228;-79
2023/11/03 12:17:26;;;;;;;4.35;1.13;;;;;;;;;;5032334;28;20239;-79
2023/11/03 12:19:53;;;;;;;4.43;1.80;;;;;;;;;;5032273;28;20279;-78
2023/11/03 12:22:20;;;;;;;3.10;1.60;;;;;;;;;;5031858;28;20192;-80
2023/11/03 12:24:49;;;;;;;3.17;1.70;;;;;;;;;;5032088;28;20211;-79
2023/11/03 12:27:16;;;;;;;3.20;1.08;;;;;;;;;;5031833;28;20193;-78
2023/11/03 12:29:45;;;;;;;2.60;0.90;;;;;;;;;;5032289;28;20197;-78
2023/11/03 12:32:13;;;;;;;3.15;1.08;;;;;;;;;;5031928;28;20283;-79
2023/11/03 12:34:41;;;;;;;3.40;1.15;;;;;;;;;;5031471;28;20310;-78
2023/11/03 12:37:09;;;;;;;4.97;1.30;;;;;;;;;;5031457;28;20196;-79
2023/11/03 12:39:50;;;;;;;3.47;1.15;;;;;;;;;;5031333;28;20228;-79
2023/11/03 12:42:18;;;;;;;3.33;1.13;;;;;;;;;;5031618;28;20283;-79
2023/11/03 12:44:51;;;;;;;3.15;0.95;;;;;;;;;;5032411;28;20200;-78
2023/11/03 12:47:38;;;;;;;2.95;0.88;;;;;;;;;;5031967;28;20196;-78
2023/11/03 12:50:17;;;;;;;4.43;1.00;;;;;;;;;;5031279;28;20204;-79
2023/11/03 12:52:45;;;;;;;5.53;1.00;;;;;;;;;;5031239;28;20196;-79
2023/11/03 12:55:14;;;;;;;4.75;1.20;;;;;;;;;;5031369;28;20228;-78
2023/11/03 12:57:42;;;;;;;5.00;1.30;;;;;;;;;;5031738;28;20192;-79
2023/11/03 13:00:11;;;;;;;4.32;1.55;;;;;;;;;;5031549;28;20254;-79
2023/11/03 13:02:40;;;;;;;5.65;1.60;;;;;;;;;;5031462;28;20576;-79
2023/11/03 13:05:09;;;;;;;4.68;1.40;;;;;;;;;;5031360;28;20201;-79
2023/11/03 13:07:37;;;;;;;3.97;1.45;;;;;;;;;;5030957;28;20651;-80
2023/11/03 13:10:05;;;;;;;7.28;1.42;;;;;;;;;;5031331;28;20235;-80
2023/11/03 13:12:34;;;;;;;4.95;1.63;;;;;;;;;;5031543;28;20203;-80
2023/11/03 13:15:02;;;;;;;4.13;1.25;;;;;;;;;;5031760;28;20238;-79
2023/11/03 13:17:30;;;;;;;4.82;1.52;;;;;;;;;;5031566;28;20227;-79
2023/11/03 13:19:58;;;;;;;5.72;1.92;;;;;;;;;;5031429;28;20256;-79
2023/11/03 13:22:25;;;;;;;5.05;1.50;;;;;;;;;;5031370;28;20302;-80
2023/11/03 13:24:53;;;;;;;4.47;1.70;;;;;;;;;;5031469;28;20227;-78
2023/11/03 13:27:20;;;;;;;4.40;1.52;;;;;;;;;;5031654;28;20206;-80
2023/11/03 13:29:50;;;;;;;4.43;1.58;;;;;;;;;;5031349;28;20239;-79
2023/11/03 13:32:19;;;;;;;3.58;1.40;;;;;;;;;;5031097;28;20606;-80
2023/11/03 13:34:46;;;;;;;5.10;1.20;;;;;;;;;;5030733;28;20732;-80
2023/11/03 13:37:13;;;;;;;7.00;1.30;;;;;;;;;;5030962;28;20205;-79
2023/11/03 13:39:41;;;;;;;2.22;1.00;;;;;;;;;;5031276;28;20228;-79
2023/11/03 13:42:09;;;;;;;4.93;1.20;;;;;;;;;;5031204;28;20196;-79
2023/11/03 13:44:37;;;;;;;8.40;5.55;;;;;;;;;;5031448;28;20287;-79
2023/11/03 13:47:05;;;;;;;5.22;1.95;;;;;;;;;;5030920;28;20553;-78
2023/11/03 13:49:35;;;;;;;3.53;1.20;;;;;;;;;;5030849;28;20255;-80
2023/11/03 13:52:02;;;;;;;6.20;1.42;;;;;;;;;;5030554;28;20192;-79
2023/11/03 13:54:29;;;;;;;6.70;1.50;;;;;;;;;;5031385;28;20229;-79
2023/11/03 13:56:57;;;;;;;4.00;1.50;;;;;;;;;;5032339;28;20239;-80
2023/11/03 13:59:24;;;;;;;3.22;1.38;;;;;;;;;;5034914;28;20684;-79
2023/11/03 14:01:53;;;;;;;6.28;1.30;;;;;;;;;;5034581;28;20288;-79
2023/11/03 14:04:21;;;;;;;5.40;1.30;;;;;;;;;;5034312;28;20670;-80
2023/11/03 14:06:48;;;;;;;6.28;1.58;;;;;;;;;;5034248;28;20221;-79
2023/11/03 14:09:16;;;;;;;9.70;1.70;;;;;;;;;;5034969;28;20231;-79
2023/11/03 14:11:44;;;;;;;4.35;1.02;;;;;;;;;;5034433;28;20283;-79
2023/11/03 14:14:11;;;;;;;6.45;1.33;;;;;;;;;;5034295;28;20668;-79
2023/11/03 14:16:40;;;;;;;8.43;1.50;;;;;;;;;;5034466;28;20630;-78
2023/11/03 14:19:08;;;;;;;5.95;1.60;;;;;;;;;;5033759;28;20616;-79
2023/11/03 14:21:40;;;;;;;7.47;1.92;;;;;;;;;;5034431;28;20278;-80
2023/11/03 14:24:08;;;;;;;7.10;1.50;;;;;;;;;;5035135;28;20192;-79
2023/11/03 14:26:35;;;;;;;8.27;1.70;;;;;;;;;;5034144;28;20676;-79
2023/11/03 14:29:03;;;;;;;4.60;1.50;;;;;;;;;;5034197;28;20227;-79
2023/11/03 14:31:33;;;;;;;9.50;1.67;;;;;;;;;;5033816;28;20235;-78
2023/11/03 14:34:00;;;;;;;4.43;1.20;;;;;;;;;;5033728;28;20311;-79
2023/11/03 14:36:27;;;;;;;8.57;1.35;;;;;;;;;;5033901;28;20600;-79
2023/11/03 14:38:57;;;;;;;4.35;1.40;;;;;;;;;;5033772;28;20629;-79
2023/11/03 14:41:24;;;;;;;8.65;1.50;;;;;;;;;;5034121;28;20201;-79
2023/11/03 14:43:51;;;;;;;6.63;1.50;;;;;;;;;;5034009;28;20207;-79
2023/11/03 14:46:20;;;;;;;4.68;1.52;;;;;;;;;;5034304;28;20235;-79
2023/11/03 14:48:48;;;;;;;6.00;1.42;;;;;;;;;;5033456;28;20208;-79